Time;durP1;ratioP1;P1;durP2;ratioP2;P2;SDS_P1;SDS_P2;PMS_P1;PMS_P2;Temp;Humidity;BMP_temperature;BMP_pressure;BME280_temperature;BME280_humidity;BME280_pressure;Samples;Min_cycle;Max_cycle;Signal;HPM_P1;HPM_P2
2024/01/06 00:00:26;;;;;;;20.58;11.85;;;;;;;3.97;100.00;100174.94;1019005;29;20316;-54
2024/01/06 00:03:27;;;;;;;19.65;11.40;;;;;;;3.95;100.00;100176.94;1015727;29;20052;-55
2024/01/06 00:04:15;;;;;;;18.20;11.50;;;;;;;3.90;100.00;100181.97;1017086;29;20838;-51
2024/01/06 00:05:08;;;;;;;20.65;12.82;;;;;;;4.02;100.00;100180.44;1018839;29;20578;-55
2024/01/06 00:06:26;;;;;;;21.55;12.98;;;;;;;3.99;100.00;100183.47;1015349;29;20815;-54
2024/01/06 00:07:40;;;;;;;22.50;11.98;;;;;;;4.02;100.00;100185.72;1028180;28;20653;-55
2024/01/06 00:09:52;;;;;;;18.58;12.27;;;;;;;3.85;100.00;100181.72;1030074;28;20310;-55
2024/01/06 00:11:06;;;;;;;19.80;12.38;;;;;;;3.90;100.00;100189.88;1026407;28;20301;-47
2024/01/06 00:11:57;;;;;;;20.67;13.07;;;;;;;3.90;100.00;100186.44;1029569;28;20302;-50
2024/01/06 00:12:48;;;;;;;18.38;11.70;;;;;;;3.98;100.00;100192.38;1033914;28;20819;-48
2024/01/06 00:13:39;;;;;;;21.58;12.95;;;;;;;3.82;100.00;100179.44;1027386;28;20302;-55
2024/01/06 00:14:59;;;;;;;20.25;12.05;;;;;;;3.88;100.00;100183.16;1029376;28;20306;-50
2024/01/06 00:16:07;;;;;;;17.98;11.45;;;;;;;3.88;100.00;100189.25;1026623;28;20457;-55
2024/01/06 00:17:32;;;;;;;22.25;13.82;;;;;;;3.92;100.00;100185.22;1025970;29;20306;-54
2024/01/06 00:19:04;;;;;;;19.80;12.07;;;;;;;3.98;100.00;100189.72;1033966;28;20440;-55
2024/01/06 00:20:11;;;;;;;19.63;11.02;;;;;;;3.81;100.00;100198.88;1033634;28;20308;-54
2024/01/06 00:21:11;;;;;;;18.08;11.75;;;;;;;3.75;100.00;100188.28;1030336;28;20720;-55
2024/01/06 00:21:51;;;;;;;19.27;11.15;;;;;;;3.82;100.00;100195.25;1033319;28;20335;-49
2024/01/06 00:22:44;;;;;;;19.83;12.32;;;;;;;3.81;100.00;100196.25;1026616;28;20299;-46
2024/01/06 00:23:58;;;;;;;19.00;12.52;;;;;;;3.93;100.00;100197.41;1026035;28;20303;-47
2024/01/06 00:25:26;;;;;;;21.33;12.73;;;;;;;3.84;100.00;100195.91;1031419;28;20302;-55
2024/01/06 00:27:13;;;;;;;24.23;13.77;;;;;;;3.85;100.00;100192.25;1051243;28;20340;-55
2024/01/06 00:28:30;;;;;;;19.08;12.02;;;;;;;3.93;100.00;100192.13;1052512;28;20306;-55
2024/01/06 00:29:43;;;;;;;20.40;11.63;;;;;;;3.84;100.00;100198.53;1046162;28;20288;-47
2024/01/06 00:30:36;;;;;;;18.08;11.30;;;;;;;3.89;100.00;100195.34;1041330;28;20285;-55
2024/01/06 00:31:48;;;;;;;17.52;11.13;;;;;;;3.85;100.00;100199.34;1039271;28;20723;-46
2024/01/06 00:32:49;;;;;;;17.85;11.48;;;;;;;3.86;100.00;100199.16;1044939;28;20304;-47
2024/01/06 00:34:15;;;;;;;18.30;12.13;;;;;;;3.81;100.00;100198.88;1051280;28;20303;-55
2024/01/06 00:35:18;;;;;;;19.50;11.15;;;;;;;3.76;100.00;100201.28;1046487;28;20041;-55
2024/01/06 00:36:09;;;;;;;20.25;10.57;;;;;;;3.78;100.00;100193.19;1045792;28;20393;-48
2024/01/06 00:37:20;;;;;;;20.98;11.13;;;;;;;3.73;100.00;100196.38;1044855;28;20665;-51
2024/01/06 00:38:08;;;;;;;16.60;10.80;;;;;;;3.75;100.00;100199.63;1042741;28;20325;-54
2024/01/06 00:39:03;;;;;;;19.17;12.20;;;;;;;3.85;100.00;100194.91;1039423;28;20336;-54
2024/01/06 00:40:28;;;;;;;20.15;10.82;;;;;;;3.78;100.00;100196.63;1045446;28;20354;-46
2024/01/06 00:41:28;;;;;;;16.50;10.75;;;;;;;3.76;100.00;100206.53;1046021;28;20312;-46
2024/01/06 00:42:46;;;;;;;17.75;11.73;;;;;;;3.70;100.00;100202.03;1042029;28;20323;-55
2024/01/06 00:43:45;;;;;;;15.05;9.88;;;;;;;3.72;100.00;100214.00;1043426;28;20975;-49
2024/01/06 00:44:50;;;;;;;22.02;12.20;;;;;;;3.75;100.00;100204.91;1041668;28;20308;-55
2024/01/06 00:45:48;;;;;;;17.98;10.07;;;;;;;3.80;100.00;100206.97;1041912;28;20335;-55
2024/01/06 00:46:49;;;;;;;18.38;11.23;;;;;;;3.79;100.00;100205.34;1037904;28;20289;-48
2024/01/06 00:48:00;;;;;;;14.52;10.20;;;;;;;3.73;100.00;100201.66;1047903;28;20325;-47
2024/01/06 00:49:12;;;;;;;16.20;10.30;;;;;;;3.70;100.00;100210.75;1047122;28;20295;-55
2024/01/06 00:50:27;;;;;;;14.57;10.38;;;;;;;3.74;100.00;100208.53;1037433;28;20062;-55
2024/01/06 00:51:44;;;;;;;14.90;10.15;;;;;;;3.78;100.00;100209.81;1037589;28;20390;-46
2024/01/06 00:52:52;;;;;;;15.70;9.60;;;;;;;3.65;100.00;100212.31;1029701;28;20506;-47
2024/01/06 00:54:00;;;;;;;16.50;10.32;;;;;;;3.71;100.00;100208.91;1045367;28;20304;-52
2024/01/06 00:54:55;;;;;;;12.90;8.65;;;;;;;3.72;100.00;100207.91;1046457;28;20311;-47
2024/01/06 00:57:35;;;;;;;12.18;9.23;;;;;;;3.58;100.00;100211.44;1046267;28;20306;-55
2024/01/06 00:58:58;;;;;;;13.80;9.73;;;;;;;3.65;100.00;100214.94;1045384;28;20068;-52
2024/01/06 01:00:10;;;;;;;14.25;8.95;;;;;;;3.67;100.00;100220.84;1043192;28;20055;-55
2024/01/06 01:01:01;;;;;;;10.80;7.35;;;;;;;3.62;100.00;100217.94;1040571;28;20822;-47
2024/01/06 01:01:46;;;;;;;13.90;8.93;;;;;;;3.55;100.00;100223.13;1048947;28;20352;-47
2024/01/06 01:02:59;;;;;;;12.57;8.68;;;;;;;3.56;100.00;100221.31;1042981;28;20613;-47
2024/01/06 01:05:29;;;;;;;12.25;8.38;;;;;;;3.47;100.00;100222.44;1040217;28;20814;-50
2024/01/06 01:06:25;;;;;;;14.73;9.73;;;;;;;3.58;100.00;100230.69;1037887;28;20361;-46
2024/01/06 01:07:20;;;;;;;11.40;7.75;;;;;;;3.46;100.00;100220.78;1036739;28;20818;-47
2024/01/06 01:08:38;;;;;;;12.38;8.63;;;;;;;3.52;100.00;100230.56;1040789;28;20046;-46
2024/01/06 01:09:39;;;;;;;13.57;9.10;;;;;;;3.52;100.00;100231.41;1035147;28;20772;-50
2024/01/06 01:10:38;;;;;;;;;;;;;;;3.59;100.00;100239.41;1042418;28;20304;-48
2024/01/06 01:13:15;;;;;;;15.05;9.32;;;;;;;3.41;100.00;100235.34;1046753;28;20839;-48
2024/01/06 01:14:28;;;;;;;14.50;9.20;;;;;;;3.49;100.00;100229.13;1045523;28;20290;-50
2024/01/06 01:15:29;;;;;;;;;;;;;;;;;;;;;
2024/01/06 01:16:55;;;;;;;14.40;9.88;;;;;;;3.45;100.00;100229.69;1048257;28;20100;-55
2024/01/06 01:18:12;;;;;;;17.08;9.48;;;;;;;3.47;100.00;100238.22;1051101;28;20294;-46
2024/01/06 01:19:06;;;;;;;17.08;9.60;;;;;;;3.30;100.00;100242.91;1037964;28;20711;-55
2024/01/06 01:20:04;;;;;;;15.45;9.68;;;;;;;3.37;100.00;100239.34;1037743;28;20281;-54
2024/01/06 01:21:12;;;;;;;15.35;10.40;;;;;;;3.37;100.00;100244.59;1048239;28;20309;-55
2024/01/06 01:22:11;;;;;;;16.23;10.05;;;;;;;3.44;100.00;100249.13;1046044;28;20311;-54
2024/01/06 01:23:01;;;;;;;17.40;10.45;;;;;;;3.16;100.00;100244.53;1045735;28;20307;-55
2024/01/06 01:24:32;;;;;;;18.10;11.13;;;;;;;3.36;100.00;100248.25;1040664;28;20860;-47
2024/01/06 01:25:21;;;;;;;20.98;11.60;;;;;;;3.21;100.00;100244.78;1040013;28;20600;-55
2024/01/06 01:26:29;;;;;;;19.42;11.98;;;;;;;3.27;100.00;100249.31;1033817;28;20402;-54
2024/01/06 01:27:54;;;;;;;16.60;10.70;;;;;;;3.17;100.00;100250.59;1030221;28;20317;-56
2024/01/06 01:29:28;;;;;;;18.13;11.60;;;;;;;3.29;100.00;100252.63;1022131;29;20318;-54
2024/01/06 01:30:23;;;;;;;19.27;12.73;;;;;;;3.32;100.00;100251.44;1037948;28;20375;-48
2024/01/06 01:31:34;;;;;;;19.80;12.68;;;;;;;3.40;100.00;100253.94;1036767;28;20914;-55
2024/01/06 01:32:38;;;;;;;18.13;12.38;;;;;;;3.35;100.00;100257.13;1023200;28;20335;-56
2024/01/06 01:33:21;;;;;;;24.75;12.55;;;;;;;3.29;100.00;100257.88;1023487;29;20339;-55
2024/01/06 01:34:10;;;;;;;21.70;13.32;;;;;;;3.37;100.00;100265.66;1022135;29;20320;-56
2024/01/06 01:35:33;;;;;;;21.58;13.05;;;;;;;3.28;100.00;100263.28;1031597;28;20031;-47
2024/01/06 01:36:24;;;;;;;23.88;12.95;;;;;;;3.31;100.00;100260.31;1030685;28;20313;-47
2024/01/06 01:37:29;;;;;;;18.23;12.93;;;;;;;3.31;100.00;100266.41;1018789;29;20335;-49
2024/01/06 01:38:24;;;;;;;17.52;11.30;;;;;;;3.27;100.00;100265.09;1036693;28;20309;-46
2024/01/06 01:39:30;;;;;;;17.85;11.95;;;;;;;3.31;100.00;100266.41;1034558;28;20312;-55
2024/01/06 01:40:46;;;;;;;16.90;11.68;;;;;;;3.29;100.00;100267.59;1037382;28;20756;-55
2024/01/06 01:41:53;;;;;;;20.85;11.90;;;;;;;3.20;100.00;100266.03;1031097;28;20389;-47
2024/01/06 01:43:42;;;;;;;18.77;11.30;;;;;;;3.26;100.00;100273.19;1028830;28;20287;-55
2024/01/06 01:44:50;;;;;;;16.45;10.32;;;;;;;3.22;100.00;100279.81;1027866;28;20350;-55
2024/01/06 01:46:01;;;;;;;16.83;11.43;;;;;;;3.08;100.00;100276.19;1031122;28;20935;-55
2024/01/06 01:46:59;;;;;;;14.02;10.32;;;;;;;3.16;100.00;100276.09;1034384;28;20305;-50
2024/01/06 01:48:07;;;;;;;18.35;11.63;;;;;;;3.27;100.00;100275.63;1029266;28;20318;-54
2024/01/06 01:48:59;;;;;;;18.17;11.20;;;;;;;3.19;100.00;100278.38;1029862;28;20785;-50
2024/01/06 01:50:11;;;;;;;15.02;10.35;;;;;;;3.23;100.00;100277.00;1024741;28;20322;-48
2024/01/06 01:50:55;;;;;;;15.40;11.65;;;;;;;3.22;100.00;100278.00;1028322;28;20182;-46
2024/01/06 01:52:12;;;;;;;15.27;10.48;;;;;;;3.19;100.00;100278.38;1019896;29;20316;-51
2024/01/06 01:53:13;;;;;;;18.30;12.65;;;;;;;3.08;100.00;100271.75;1032840;28;20353;-54
2024/01/06 01:54:47;;;;;;;15.13;10.50;;;;;;;3.15;100.00;100282.38;1038382;28;20325;-46
2024/01/06 01:57:01;;;;;;;15.90;10.52;;;;;;;3.23;100.00;100287.53;1029883;28;20343;-54
2024/01/06 01:57:57;;;;;;;17.25;10.48;;;;;;;3.18;100.00;100287.25;1030095;28;20377;-55
2024/01/06 01:59:29;;;;;;;15.15;10.82;;;;;;;3.16;100.00;100293.72;1034900;28;20288;-46
2024/01/06 02:00:31;;;;;;;17.52;10.52;;;;;;;3.09;100.00;100291.00;1032683;28;20305;-46
2024/01/06 02:01:43;;;;;;;15.68;9.98;;;;;;;3.13;100.00;100300.16;1029534;28;20313;-55
2024/01/06 02:02:47;;;;;;;18.42;11.27;;;;;;;3.01;100.00;100301.56;1037853;28;20289;-55
2024/01/06 02:03:50;;;;;;;14.30;10.55;;;;;;;3.09;100.00;100304.97;1038645;28;20320;-54
2024/01/06 02:05:16;;;;;;;17.58;11.07;;;;;;;2.98;100.00;100308.03;1041445;28;20308;-54
2024/01/06 02:06:20;;;;;;;18.15;11.70;;;;;;;2.96;100.00;100315.28;1035763;28;20413;-54
2024/01/06 02:09:24;;;;;;;16.02;10.18;;;;;;;3.02;100.00;100313.75;1041799;28;20311;-47
2024/01/06 02:10:27;;;;;;;17.42;10.68;;;;;;;2.96;100.00;100319.72;1040624;28;20071;-55
2024/01/06 02:12:32;;;;;;;17.52;10.35;;;;;;;3.06;100.00;100320.28;1031534;28;20488;-46
2024/01/06 02:13:19;;;;;;;18.60;11.35;;;;;;;3.05;100.00;100318.66;1036052;28;20441;-53
2024/01/06 02:14:42;;;;;;;15.52;10.25;;;;;;;3.12;100.00;100316.94;1041905;28;20295;-55
2024/01/06 02:15:54;;;;;;;20.20;11.77;;;;;;;3.01;100.00;100327.88;1040029;28;20300;-52
2024/01/06 02:16:40;;;;;;;16.40;11.02;;;;;;;3.00;100.00;100323.63;1041418;28;20391;-55
2024/01/06 02:17:41;;;;;;;18.10;11.77;;;;;;;2.98;100.00;100323.00;1044927;28;20334;-54
2024/01/06 02:19:09;;;;;;;15.10;10.80;;;;;;;3.03;100.00;100325.94;1038863;28;20296;-55
2024/01/06 02:20:14;;;;;;;22.02;11.18;;;;;;;2.91;100.00;100329.97;1035123;28;20676;-52
2024/01/06 02:21:07;;;;;;;13.73;10.18;;;;;;;3.02;100.00;100327.75;1035081;28;20830;-48
2024/01/06 02:22:06;;;;;;;16.10;10.38;;;;;;;3.03;100.00;100336.44;1033800;28;20826;-48
2024/01/06 02:23:00;;;;;;;15.55;11.05;;;;;;;2.94;100.00;100329.59;1032164;28;20309;-55
2024/01/06 02:23:54;;;;;;;17.38;11.50;;;;;;;2.96;100.00;100332.88;1036395;28;20299;-55
2024/01/06 02:24:52;;;;;;;15.40;10.60;;;;;;;2.87;100.00;100333.97;1037233;28;20376;-54
2024/01/06 02:25:33;;;;;;;21.83;12.63;;;;;;;2.89;100.00;100337.22;1032858;28;20297;-55
2024/01/06 02:26:31;;;;;;;16.50;11.68;;;;;;;2.92;100.00;100335.06;1031866;28;20799;-47
2024/01/06 02:27:31;;;;;;;20.83;12.18;;;;;;;2.81;100.00;100334.69;1036071;28;20669;-55
2024/01/06 02:28:45;;;;;;;19.33;11.77;;;;;;;2.85;100.00;100338.59;1033477;28;20519;-55
2024/01/06 02:29:32;;;;;;;19.00;11.35;;;;;;;2.83;100.00;100336.13;1035157;28;20297;-52
2024/01/06 02:30:31;;;;;;;17.20;11.15;;;;;;;2.88;100.00;100333.78;1027640;28;20318;-54
2024/01/06 02:31:14;;;;;;;19.00;11.95;;;;;;;2.96;100.00;100343.41;1033160;28;20429;-55
2024/01/06 02:31:48;;;;;;;;;;;;;;;2.91;100.00;100338.69;1032980;28;20795;-47
2024/01/06 02:32:51;;;;;;;22.23;12.27;;;;;;;2.88;100.00;100343.47;1029926;28;20005;-53
2024/01/06 02:33:46;;;;;;;19.25;9.70;;;;;;;2.69;100.00;100345.59;1042335;28;20319;-55
2024/01/06 02:35:44;;;;;;;23.55;11.13;;;;;;;2.85;100.00;100344.66;1032964;28;20039;-54
2024/01/06 02:36:30;;;;;;;17.92;10.25;;;;;;;2.65;100.00;100354.03;1044281;28;20314;-51
2024/01/06 02:38:52;;;;;;;20.17;11.95;;;;;;;2.81;100.00;100353.09;1029220;28;20322;-55
2024/01/06 02:39:42;;;;;;;18.83;10.48;;;;;;;2.77;100.00;100355.25;1043876;28;20320;-47
2024/01/06 02:40:40;;;;;;;17.63;11.95;;;;;;;2.78;100.00;100352.44;1036871;28;20697;-55
2024/01/06 02:41:38;;;;;;;15.18;11.10;;;;;;;2.71;100.00;100362.00;1025082;28;20314;-54
2024/01/06 02:42:34;;;;;;;17.30;9.73;;;;;;;2.71;100.00;100364.66;1024094;29;20319;-55
2024/01/06 02:43:19;;;;;;;17.80;10.80;;;;;;;2.78;100.00;100365.59;1025433;28;20402;-50
2024/01/06 02:44:11;;;;;;;21.75;12.07;;;;;;;2.76;100.00;100362.34;1030706;28;20306;-46
2024/01/06 02:44:58;;;;;;;24.35;11.73;;;;;;;2.76;100.00;100367.59;1026002;28;20299;-48
2024/01/06 02:46:10;;;;;;;18.92;11.60;;;;;;;2.90;100.00;100362.53;1034523;28;20379;-55
2024/01/06 02:47:14;;;;;;;21.15;11.63;;;;;;;2.85;100.00;100359.63;1031448;28;20309;-55
2024/01/06 02:48:07;;;;;;;18.08;10.35;;;;;;;2.80;100.00;100362.78;1036623;28;20049;-55
2024/01/06 02:49:07;;;;;;;21.88;12.13;;;;;;;2.84;100.00;100371.13;1032041;28;20329;-51
2024/01/06 02:50:18;;;;;;;15.57;10.32;;;;;;;2.80;100.00;100362.78;1036413;28;20305;-55
2024/01/06 02:51:13;;;;;;;20.00;11.00;;;;;;;2.81;100.00;100360.97;1036512;28;20313;-51
2024/01/06 02:51:57;;;;;;;17.60;10.60;;;;;;;2.79;100.00;100372.50;1033793;28;20364;-55
2024/01/06 02:52:56;;;;;;;17.48;10.90;;;;;;;2.82;100.00;100370.50;1037168;28;20325;-47
2024/01/06 02:53:52;;;;;;;18.02;11.50;;;;;;;2.83;100.00;100372.94;1033218;28;20337;-47
2024/01/06 02:54:44;;;;;;;17.88;10.50;;;;;;;2.75;100.00;100373.84;1032943;28;20381;-47
2024/01/06 02:55:53;;;;;;;18.52;11.93;;;;;;;2.80;100.00;100381.19;1025008;28;20346;-55
2024/01/06 02:56:43;;;;;;;19.73;10.98;;;;;;;2.79;100.00;100377.75;1039128;28;20034;-46
2024/01/06 02:57:36;;;;;;;24.17;13.15;;;;;;;2.81;100.00;100380.19;1037920;28;20368;-49
2024/01/06 03:00:08;;;;;;;24.50;12.07;;;;;;;2.77;100.00;100384.19;1037538;28;20819;-50
2024/01/06 03:01:16;;;;;;;22.83;11.93;;;;;;;2.76;100.00;100379.91;1028250;28;20712;-53
2024/01/06 03:02:24;;;;;;;17.67;10.60;;;;;;;2.75;100.00;100388.81;1037424;28;20345;-54
2024/01/06 03:03:08;;;;;;;23.25;12.43;;;;;;;2.74;100.00;100385.34;1039076;28;20308;-48
2024/01/06 03:03:57;;;;;;;16.48;10.55;;;;;;;2.67;100.00;100389.66;1037605;28;20042;-54
2024/01/06 03:05:07;;;;;;;19.15;11.43;;;;;;;2.73;100.00;100396.84;1036339;28;20319;-55
2024/01/06 03:06:11;;;;;;;24.48;9.98;;;;;;;2.61;100.00;100393.00;1035952;28;20360;-47
2024/01/06 03:07:24;;;;;;;19.40;10.65;;;;;;;2.65;100.00;100390.84;1029672;28;20864;-46
2024/01/06 03:08:23;;;;;;;18.48;10.40;;;;;;;2.65;100.00;100391.66;1038874;28;20307;-48
2024/01/06 03:09:48;;;;;;;17.52;10.30;;;;;;;2.62;100.00;100393.81;1039940;28;20307;-55
2024/01/06 03:10:30;;;;;;;16.33;9.32;;;;;;;2.59;100.00;100395.00;1033811;28;20376;-55
2024/01/06 03:11:03;;;;;;;15.27;9.85;;;;;;;2.50;100.00;100397.84;1039027;28;20318;-48
2024/01/06 03:11:35;;;;;;;21.55;10.85;;;;;;;2.55;100.00;100393.72;1039487;28;20315;-46
2024/01/06 03:12:07;;;;;;;14.85;9.82;;;;;;;2.67;100.00;100394.09;1040049;28;20324;-46
2024/01/06 03:12:39;;;;;;;18.90;11.18;;;;;;;2.74;100.00;100400.31;1043015;28;20330;-48
2024/01/06 03:13:11;;;;;;;21.30;11.38;;;;;;;2.66;100.00;100395.09;1043234;28;20303;-45
2024/01/06 03:13:42;;;;;;;20.77;11.30;;;;;;;2.59;100.00;100395.00;1043340;28;20353;-47
2024/01/06 03:14:14;;;;;;;21.27;12.15;;;;;;;2.56;100.00;100397.16;1042872;28;20307;-48
2024/01/06 03:14:46;;;;;;;17.35;10.88;;;;;;;2.61;100.00;100395.63;1047602;28;20638;-46
2024/01/06 03:15:17;;;;;;;19.52;10.98;;;;;;;2.66;100.00;100397.72;1047578;28;20291;-48
2024/01/06 03:15:49;;;;;;;18.75;10.38;;;;;;;2.59;100.00;100400.25;1047445;28;20673;-49
2024/01/06 03:16:21;;;;;;;19.92;11.02;;;;;;;2.68;100.00;100393.94;1048075;28;20302;-49
2024/01/06 03:16:52;;;;;;;23.63;11.80;;;;;;;2.76;100.00;100399.16;1047708;28;20311;-47
2024/01/06 03:17:24;;;;;;;20.05;12.10;;;;;;;2.73;100.00;100394.22;1047342;28;20309;-47
2024/01/06 03:17:56;;;;;;;15.55;9.65;;;;;;;2.57;100.00;100389.09;1047528;28;20299;-47
2024/01/06 03:18:28;;;;;;;18.35;11.57;;;;;;;2.61;100.00;100394.81;1047667;28;20649;-45
2024/01/06 03:19:00;;;;;;;20.60;12.90;;;;;;;2.51;100.00;100395.06;1042685;28;20303;-47
2024/01/06 03:19:32;;;;;;;22.23;13.32;;;;;;;2.62;100.00;100392.00;1042823;28;20307;-47
2024/01/06 03:20:04;;;;;;;22.05;13.43;;;;;;;2.54;100.00;100399.97;1043063;28;20288;-48
2024/01/06 03:20:36;;;;;;;23.27;13.90;;;;;;;2.45;100.00;100395.72;1043729;28;20838;-49
2024/01/06 03:21:18;;;;;;;17.88;13.93;;;;;;;2.50;100.00;100398.69;1047838;28;20385;-54
2024/01/06 03:21:49;;;;;;;21.98;13.73;;;;;;;2.44;100.00;100404.59;1046724;28;20808;-55
2024/01/06 03:22:21;;;;;;;22.70;13.48;;;;;;;2.46;100.00;100392.09;1047628;28;20713;-55
2024/01/06 03:22:53;;;;;;;23.23;14.43;;;;;;;2.58;100.00;100395.97;1047540;28;20524;-55
2024/01/06 03:23:24;;;;;;;18.20;14.10;;;;;;;2.52;100.00;100406.38;1047526;28;20723;-54
2024/01/06 03:23:56;;;;;;;23.60;14.50;;;;;;;2.49;100.00;100402.31;1047830;28;20290;-55
2024/01/06 03:24:28;;;;;;;21.42;14.48;;;;;;;2.55;100.00;100400.78;1047899;28;20299;-54
2024/01/06 03:24:59;;;;;;;19.00;13.57;;;;;;;2.55;100.00;100401.59;1047465;28;20306;-55
2024/01/06 03:25:31;;;;;;;22.77;13.88;;;;;;;2.48;100.00;100405.91;1042049;28;20292;-55
2024/01/06 03:26:06;;;;;;;18.73;13.30;;;;;;;2.28;100.00;100405.53;1043343;28;20661;-55
2024/01/06 03:26:37;;;;;;;22.25;15.00;;;;;;;2.28;100.00;100405.53;1043110;28;20307;-54
2024/01/06 03:27:09;;;;;;;20.45;13.35;;;;;;;2.32;100.00;100406.81;1043881;28;21020;-55
2024/01/06 03:27:41;;;;;;;22.48;14.02;;;;;;;2.36;100.00;100402.84;1047707;28;20295;-55
2024/01/06 03:28:12;;;;;;;20.13;14.50;;;;;;;2.45;100.00;100406.25;1047414;28;20298;-55
2024/01/06 03:28:44;;;;;;;18.67;13.35;;;;;;;2.44;100.00;100412.50;1047407;28;20291;-54
2024/01/06 03:29:16;;;;;;;19.90;15.27;;;;;;;2.45;100.00;100412.31;1047932;28;20679;-55
2024/01/06 03:29:47;;;;;;;20.77;13.70;;;;;;;2.38;100.00;100413.19;1047557;28;20297;-55
2024/01/06 03:30:19;;;;;;;22.38;14.52;;;;;;;2.31;100.00;100412.25;1047412;28;20302;-55
2024/01/06 03:30:51;;;;;;;21.17;14.25;;;;;;;2.38;100.00;100415.81;1047516;28;20298;-55
2024/01/06 03:31:23;;;;;;;28.30;14.68;;;;;;;2.43;100.00;100418.75;1047371;28;20291;-47
2024/01/06 03:31:55;;;;;;;18.95;12.60;;;;;;;2.39;100.00;100417.47;1047217;28;20309;-49
2024/01/06 03:32:28;;;;;;;20.50;13.07;;;;;;;2.53;100.00;100414.09;1043035;28;20634;-49
2024/01/06 03:33:00;;;;;;;21.77;13.27;;;;;;;2.60;100.00;100415.03;1043190;28;20307;-46
2024/01/06 03:33:32;;;;;;;20.17;13.75;;;;;;;2.56;100.00;100413.75;1042586;28;20295;-55
2024/01/06 03:34:04;;;;;;;19.90;13.70;;;;;;;2.47;100.00;100425.31;1044256;28;20824;-55
2024/01/06 03:34:36;;;;;;;21.45;14.65;;;;;;;2.47;100.00;100420.06;1047893;28;20310;-54
2024/01/06 03:35:07;;;;;;;21.10;13.63;;;;;;;2.53;100.00;100424.63;1047617;28;20911;-55
2024/01/06 03:35:39;;;;;;;19.08;13.95;;;;;;;2.58;100.00;100417.03;1047649;28;20303;-54
2024/01/06 03:36:13;;;;;;;18.77;15.02;;;;;;;2.49;100.00;100428.59;1047535;28;20392;-54
2024/01/06 03:36:44;;;;;;;20.55;14.02;;;;;;;2.56;100.00;100423.44;1047371;28;20310;-55
2024/01/06 03:37:16;;;;;;;20.70;13.13;;;;;;;2.50;100.00;100422.34;1047563;28;20298;-55
2024/01/06 03:37:48;;;;;;;20.60;14.48;;;;;;;2.48;100.00;100426.94;1047471;28;20290;-54
2024/01/06 03:38:20;;;;;;;21.40;15.25;;;;;;;2.47;100.00;100425.31;1047345;28;20440;-55
2024/01/06 03:38:51;;;;;;;24.77;14.15;;;;;;;2.42;100.00;100427.63;1047637;28;20303;-55
2024/01/06 03:39:23;;;;;;;22.02;14.05;;;;;;;2.46;100.00;100428.91;1047647;28;20303;-55
2024/01/06 03:39:55;;;;;;;17.85;13.05;;;;;;;2.59;100.00;100429.16;1041144;28;20302;-55
2024/01/06 03:40:26;;;;;;;22.10;14.20;;;;;;;2.55;100.00;100433.16;1042726;28;20303;-55
2024/01/06 03:40:58;;;;;;;19.63;12.95;;;;;;;2.57;100.00;100431.16;1043046;28;20385;-55
2024/01/06 03:41:30;;;;;;;22.98;15.02;;;;;;;2.48;100.00;100433.03;1039263;28;20300;-55
2024/01/06 03:42:03;;;;;;;24.60;14.75;;;;;;;2.47;100.00;100425.31;1038732;28;20453;-55
2024/01/06 03:42:36;;;;;;;18.55;14.80;;;;;;;2.50;100.00;100424.97;1038989;28;20393;-55
2024/01/06 03:43:08;;;;;;;22.85;15.25;;;;;;;2.51;100.00;100426.59;1039781;28;20363;-55
2024/01/06 03:43:40;;;;;;;20.40;15.70;;;;;;;2.60;100.00;100436.06;1043773;28;20354;-55
2024/01/06 03:44:11;;;;;;;24.25;16.63;;;;;;;2.47;100.00;100427.94;1047533;28;20298;-55
2024/01/06 03:44:43;;;;;;;21.33;15.20;;;;;;;2.51;100.00;100431.84;1047593;28;20287;-55
2024/01/06 03:45:14;;;;;;;24.33;16.17;;;;;;;2.45;100.00;100432.53;1046172;28;20306;-55
2024/01/06 03:45:46;;;;;;;23.08;16.73;;;;;;;2.55;100.00;100437.59;1047154;28;20357;-54
2024/01/06 03:46:18;;;;;;;22.65;15.45;;;;;;;2.59;100.00;100434.44;1042839;28;20303;-47
2024/01/06 03:46:50;;;;;;;22.60;15.70;;;;;;;2.59;100.00;100437.06;1043079;28;20291;-46
2024/01/06 03:47:21;;;;;;;24.75;15.35;;;;;;;2.55;100.00;100435.78;1042990;28;20346;-48
2024/01/06 03:47:55;;;;;;;21.05;15.50;;;;;;;2.60;100.00;100433.44;1043455;28;20409;-47
2024/01/06 03:48:27;;;;;;;24.30;15.93;;;;;;;2.50;100.00;100430.22;1047282;28;20657;-47
2024/01/06 03:48:59;;;;;;;22.73;15.10;;;;;;;2.56;100.00;100439.22;1047506;28;20685;-47
2024/01/06 03:49:31;;;;;;;22.48;15.68;;;;;;;2.57;100.00;100436.41;1047516;28;20772;-48
2024/01/06 03:50:03;;;;;;;22.33;15.80;;;;;;;2.64;100.00;100432.09;1047690;28;20295;-49
2024/01/06 03:50:35;;;;;;;21.23;16.35;;;;;;;2.59;100.00;100438.88;1047390;28;20658;-47
2024/01/06 03:51:07;;;;;;;23.35;15.90;;;;;;;2.61;100.00;100439.50;1047237;28;20298;-49
2024/01/06 03:51:39;;;;;;;23.85;15.80;;;;;;;2.59;100.00;100439.69;1047461;28;20295;-55
2024/01/06 03:52:11;;;;;;;19.27;14.88;;;;;;;2.57;100.00;100446.94;1042773;28;20414;-55
2024/01/06 03:52:42;;;;;;;23.38;15.05;;;;;;;2.52;100.00;100440.56;1043085;28;20390;-55
2024/01/06 03:53:14;;;;;;;19.73;14.75;;;;;;;2.42;100.00;100438.94;1042823;28;20908;-53
2024/01/06 03:53:46;;;;;;;22.63;15.05;;;;;;;2.47;100.00;100446.34;1043751;28;20376;-55
2024/01/06 03:54:17;;;;;;;23.58;16.17;;;;;;;2.51;100.00;100446.81;1047312;28;20331;-55
2024/01/06 03:54:49;;;;;;;19.17;14.13;;;;;;;2.59;100.00;100449.38;1047652;28;20306;-54
2024/01/06 03:55:22;;;;;;;24.23;14.82;;;;;;;2.44;100.00;100447.47;1047028;28;20370;-55
2024/01/06 03:55:53;;;;;;;21.55;14.57;;;;;;;2.54;100.00;100452.53;1047322;28;20299;-53
2024/01/06 03:56:25;;;;;;;20.95;14.82;;;;;;;2.59;100.00;100452.84;1047401;28;20291;-55
2024/01/06 03:56:57;;;;;;;21.95;16.38;;;;;;;2.51;100.00;100455.53;1047295;28;20312;-46
2024/01/06 03:57:28;;;;;;;24.75;15.07;;;;;;;2.48;100.00;100450.59;1046973;28;20294;-46
2024/01/06 03:58:00;;;;;;;22.45;14.82;;;;;;;2.50;100.00;100446.00;1047354;28;20317;-46
2024/01/06 03:58:32;;;;;;;25.02;16.08;;;;;;;2.42;100.00;100448.66;1047417;28;20385;-47
2024/01/06 03:59:04;;;;;;;21.45;15.52;;;;;;;2.45;100.00;100454.38;1047296;28;20291;-49
2024/01/06 03:59:35;;;;;;;24.23;16.50;;;;;;;2.47;100.00;100456.84;1047550;28;20368;-47
2024/01/06 04:00:08;;;;;;;22.92;15.85;;;;;;;2.49;100.00;100449.63;1047626;28;20295;-50
2024/01/06 04:00:39;;;;;;;21.77;15.23;;;;;;;2.35;100.00;100452.97;1046980;28;20291;-47
2024/01/06 04:01:11;;;;;;;23.40;16.35;;;;;;;2.47;100.00;100449.78;1047341;28;20302;-47
2024/01/06 04:01:43;;;;;;;20.55;15.02;;;;;;;2.41;100.00;100455.72;1047466;28;20804;-47
2024/01/06 04:02:15;;;;;;;21.95;15.85;;;;;;;2.44;100.00;100449.28;1042982;28;20374;-50
2024/01/06 04:02:46;;;;;;;24.23;16.00;;;;;;;2.52;100.00;100449.25;1042956;28;20665;-47
2024/01/06 04:03:18;;;;;;;23.02;16.23;;;;;;;2.50;100.00;100464.41;1042730;28;20295;-47
2024/01/06 04:03:49;;;;;;;23.58;16.88;;;;;;;2.45;100.00;100458.81;1043396;28;20343;-46
2024/01/06 04:04:21;;;;;;;23.08;15.57;;;;;;;2.44;100.00;100450.09;1047915;28;20337;-47
2024/01/06 04:04:53;;;;;;;26.20;16.52;;;;;;;2.42;100.00;100449.47;1047540;28;20302;-46
2024/01/06 04:05:25;;;;;;;23.17;14.85;;;;;;;2.40;100.00;100454.09;1047382;28;20661;-49
2024/01/06 04:05:56;;;;;;;22.25;16.20;;;;;;;2.43;100.00;100455.53;1042898;28;20812;-50
2024/01/06 04:06:28;;;;;;;23.63;16.70;;;;;;;2.48;100.00;100455.88;1042940;28;20299;-47
2024/01/06 04:07:01;;;;;;;22.90;15.38;;;;;;;2.42;100.00;100459.97;1038747;28;20400;-46
2024/01/06 04:07:33;;;;;;;20.38;14.90;;;;;;;2.44;100.00;100451.91;1038992;28;20292;-46
2024/01/06 04:08:05;;;;;;;23.92;15.10;;;;;;;2.46;100.00;100455.19;1042836;28;20869;-46
2024/01/06 04:08:39;;;;;;;22.58;15.40;;;;;;;2.47;100.00;100464.75;1043913;28;20295;-48